createdAt,value
2018-11-04T00:00:17.605Z,22.30
2018-11-04T00:02:47.407Z,23.87
2018-11-04T00:05:15.615Z,28.70
2018-11-04T00:07:44.660Z,26.33
2018-11-04T00:10:12.822Z,25.87
2018-11-04T00:12:40.662Z,25.50
2018-11-04T00:15:09.383Z,28.77
2018-11-04T00:17:37.203Z,24.73
2018-11-04T00:20:05.726Z,25.03
2018-11-04T00:22:33.233Z,25.07
2018-11-04T00:25:00.599Z,29.80
2018-11-04T00:27:27.960Z,23.70
2018-11-04T00:29:55.525Z,23.00
2018-11-04T00:32:22.933Z,23.97
2018-11-04T00:34:50.411Z,24.40
2018-11-04T00:37:17.762Z,23.43
2018-11-04T00:39:45.284Z,27.30
2018-11-04T00:42:12.753Z,25.83
2018-11-04T00:44:40.283Z,25.53
2018-11-04T00:47:07.707Z,29.40
2018-11-04T00:49:35.111Z,30.30
2018-11-04T00:52:02.572Z,28.30
2018-11-04T00:54:30.063Z,26.33
2018-11-04T00:56:57.491Z,25.30
2018-11-04T00:59:24.894Z,26.10
2018-11-04T01:01:52.336Z,22.53
2018-11-04T01:04:19.789Z,25.40
2018-11-04T01:06:47.349Z,27.00
2018-11-04T01:09:14.993Z,30.77
2018-11-04T01:11:42.379Z,27.03
2018-11-04T01:14:09.725Z,28.30
2018-11-04T01:16:37.231Z,32.77
2018-11-04T01:19:04.898Z,29.67
2018-11-04T01:21:32.331Z,33.33
2018-11-04T01:23:59.872Z,33.53
2018-11-04T01:26:27.465Z,31.77
2018-11-04T01:28:55.021Z,32.87
2018-11-04T01:31:22.579Z,30.73
2018-11-04T01:33:50.554Z,34.37
2018-11-04T01:36:18.026Z,31.00
2018-11-04T01:38:45.550Z,27.17
2018-11-04T01:41:13.199Z,25.10
2018-11-04T01:43:40.651Z,29.67
2018-11-04T01:46:08.287Z,31.23
2018-11-04T01:48:35.748Z,32.77
2018-11-04T01:51:03.505Z,31.93
2018-11-04T01:53:31.014Z,28.57
2018-11-04T01:55:58.561Z,29.43
2018-11-04T01:58:26.245Z,33.50
2018-11-04T02:00:53.850Z,28.83
2018-11-04T02:03:21.385Z,31.63
2018-11-04T02:05:49.038Z,27.97
2018-11-04T02:08:16.740Z,34.23
2018-11-04T02:10:44.349Z,34.00
2018-11-04T02:13:11.784Z,27.97
2018-11-04T02:15:39.286Z,28.17
2018-11-04T02:18:06.775Z,24.73
2018-11-04T02:20:34.203Z,28.27
2018-11-04T02:23:01.735Z,36.53
2018-11-04T02:25:29.340Z,32.50
2018-11-04T02:27:56.880Z,32.57
2018-11-04T02:30:24.377Z,33.43
2018-11-04T02:32:51.908Z,29.23
2018-11-04T02:35:19.466Z,34.67
2018-11-04T02:37:47.049Z,29.50
2018-11-04T02:40:14.513Z,32.07
2018-11-04T02:42:42.193Z,30.87
2018-11-04T02:45:11.237Z,34.87
2018-11-04T02:47:38.751Z,32.83
2018-11-04T02:50:07.023Z,32.63
2018-11-04T02:52:34.497Z,36.37
2018-11-04T02:55:01.904Z,34.80
2018-11-04T02:57:29.419Z,31.10
2018-11-04T02:59:56.922Z,36.60
2018-11-04T03:02:24.497Z,31.53
2018-11-04T03:04:52.190Z,28.47
2018-11-04T03:07:19.781Z,28.10
2018-11-04T03:09:47.843Z,25.33
2018-11-04T03:12:15.364Z,25.40
2018-11-04T03:14:42.936Z,27.33
2018-11-04T03:17:10.501Z,26.57
2018-11-04T03:19:38.063Z,22.83
2018-11-04T03:22:05.894Z,26.10
2018-11-04T03:24:33.413Z,23.37
2018-11-04T03:27:00.877Z,23.70
2018-11-04T03:29:29.543Z,20.00
2018-11-04T03:31:57.127Z,22.43
2018-11-04T03:34:24.881Z,21.47
2018-11-04T03:36:55.077Z,22.60
2018-11-04T03:39:23.884Z,23.97
2018-11-04T03:41:54.505Z,22.50
2018-11-04T03:44:22.213Z,22.33
2018-11-04T03:46:49.702Z,21.57
2018-11-04T03:49:17.345Z,24.47
2018-11-04T03:51:44.898Z,29.13
2018-11-04T03:54:12.472Z,30.73
2018-11-04T03:56:40.041Z,25.37
2018-11-04T03:59:08.073Z,27.30
2018-11-04T04:01:35.676Z,32.73
2018-11-04T04:04:03.151Z,31.23
2018-11-04T04:06:30.611Z,35.10
2018-11-04T04:08:58.340Z,33.67
2018-11-04T04:11:25.853Z,32.00
2018-11-04T04:13:53.368Z,36.10
2018-11-04T04:16:20.810Z,30.70
2018-11-04T04:18:48.275Z,32.33
2018-11-04T04:21:15.918Z,32.73
2018-11-04T04:23:43.466Z,31.40
2018-11-04T04:26:11.449Z,33.60
2018-11-04T04:28:39.241Z,31.87
2018-11-04T04:31:06.730Z,25.53
2018-11-04T04:33:34.155Z,32.10
2018-11-04T04:36:01.685Z,36.23
2018-11-04T04:38:29.064Z,30.50
2018-11-04T04:40:56.549Z,28.13
2018-11-04T04:43:24.266Z,28.93
2018-11-04T04:45:52.171Z,25.30
2018-11-04T04:48:19.716Z,29.67
2018-11-04T04:50:47.151Z,28.70
2018-11-04T04:53:14.724Z,26.83
2018-11-04T04:55:42.316Z,34.53
2018-11-04T04:58:09.711Z,34.07
2018-11-04T05:00:37.627Z,30.70
2018-11-04T05:03:05.277Z,28.90
2018-11-04T05:05:33.124Z,26.10
2018-11-04T05:08:01.172Z,30.70
2018-11-04T05:10:29.761Z,30.13
2018-11-04T05:12:58.607Z,29.83
2018-11-04T05:15:26.971Z,28.60
2018-11-04T05:17:55.426Z,26.50
2018-11-04T05:20:23.785Z,30.03
2018-11-04T05:22:52.442Z,29.43
2018-11-04T05:25:21.014Z,34.53
2018-11-04T05:27:50.117Z,29.60
2018-11-04T05:30:18.953Z,28.93
2018-11-04T05:32:46.559Z,30.80
2018-11-04T05:35:14.390Z,29.63
2018-11-04T05:37:42.947Z,30.77
2018-11-04T05:40:10.885Z,30.30
2018-11-04T05:42:38.529Z,27.80
2018-11-04T05:45:06.910Z,27.87
2018-11-04T05:47:36.228Z,29.17
2018-11-04T05:50:05.484Z,24.50
2018-11-04T05:52:33.165Z,30.90
2018-11-04T05:55:01.270Z,27.07
2018-11-04T05:57:29.842Z,35.53
2018-11-04T05:59:58.880Z,29.50
2018-11-04T06:02:27.536Z,27.70
2018-11-04T06:04:55.822Z,27.73
2018-11-04T06:07:24.567Z,27.83
2018-11-04T06:09:55.057Z,29.07
2018-11-04T06:12:23.056Z,28.03
2018-11-04T06:14:50.509Z,28.03
2018-11-04T06:17:18.036Z,30.53
2018-11-04T06:19:46.116Z,36.57
2018-11-04T06:22:13.645Z,32.53
2018-11-04T06:24:42.357Z,34.33
2018-11-04T06:27:10.074Z,34.60
2018-11-04T06:29:38.323Z,34.10
2018-11-04T06:32:06.915Z,34.13
2018-11-04T06:34:34.912Z,32.00
2018-11-04T06:37:02.768Z,29.67
2018-11-04T06:39:30.698Z,36.63
2018-11-04T06:41:59.077Z,31.33
2018-11-04T06:44:32.255Z,37.40
2018-11-04T06:49:52.481Z,41.53
2018-11-04T06:52:20.157Z,34.23
2018-11-04T06:54:48.872Z,39.60
2018-11-04T06:57:18.985Z,39.07
2018-11-04T06:59:47.364Z,36.60
2018-11-04T07:02:15.155Z,37.40
2018-11-04T07:04:42.759Z,40.70
2018-11-04T07:07:10.477Z,39.93
2018-11-04T07:09:42.583Z,40.67
2018-11-04T07:12:10.883Z,38.43
2018-11-04T07:14:38.808Z,57.60
2018-11-04T07:17:09.102Z,66.27
2018-11-04T07:19:55.031Z,69.80
2018-11-04T07:22:23.321Z,80.77
2018-11-04T07:24:51.959Z,158.80
2018-11-04T07:27:21.154Z,132.00
2018-11-04T07:29:49.161Z,133.57
2018-11-04T07:32:19.240Z,132.33
2018-11-04T07:34:48.461Z,167.27
2018-11-04T07:37:17.432Z,268.10
2018-11-04T07:39:45.625Z,191.33
2018-11-04T07:42:13.577Z,336.10
2018-11-04T07:44:42.418Z,227.30
2018-11-04T07:47:10.611Z,232.37
2018-11-04T07:49:39.038Z,172.00
2018-11-04T07:52:07.107Z,324.77
2018-11-04T07:54:35.859Z,416.57
2018-11-04T07:57:04.459Z,291.73
2018-11-04T07:59:33.065Z,311.63
2018-11-04T08:02:01.054Z,236.40
2018-11-04T08:04:29.955Z,210.50
2018-11-04T08:06:58.061Z,414.07
2018-11-04T08:09:26.956Z,347.73
2018-11-04T08:11:55.309Z,347.17
2018-11-04T08:14:23.315Z,398.17
2018-11-04T08:16:52.503Z,212.70
2018-11-04T08:19:21.130Z,317.80
2018-11-04T08:21:49.457Z,241.00
2018-11-04T08:24:17.728Z,360.13
2018-11-04T08:26:47.321Z,397.00
2018-11-04T08:29:15.068Z,288.17
2018-11-04T08:31:43.070Z,181.37
2018-11-04T08:34:13.852Z,187.53
2018-11-04T08:36:42.410Z,146.97
2018-11-04T08:39:11.944Z,150.47
2018-11-04T08:41:40.135Z,160.43
2018-11-04T08:44:09.022Z,143.00
2018-11-04T08:46:36.844Z,153.67
2018-11-04T08:49:05.577Z,128.87
2018-11-04T08:51:33.929Z,119.70
2018-11-04T08:54:02.225Z,111.63
2018-11-04T08:56:30.534Z,110.07
2018-11-04T08:58:58.669Z,122.57
2018-11-04T09:01:26.502Z,110.63
2018-11-04T09:03:54.936Z,108.93
2018-11-04T09:06:23.925Z,100.80
2018-11-04T09:08:51.953Z,95.80
2018-11-04T09:11:20.827Z,89.80
2018-11-04T09:14:03.565Z,90.47
2018-11-04T09:16:31.820Z,84.33
2018-11-04T09:19:00.169Z,90.77
2018-11-04T09:21:28.333Z,76.20
2018-11-04T09:23:56.298Z,78.40
2018-11-04T09:26:28.062Z,79.87
2018-11-04T09:45:11.351Z,59.03
2018-11-04T09:47:39.463Z,68.67
2018-11-04T09:50:08.502Z,61.20
2018-11-04T09:52:36.352Z,60.97
2018-11-04T09:55:05.030Z,63.60
2018-11-04T10:02:43.217Z,57.67
2018-11-04T10:05:11.569Z,62.73
2018-11-04T10:07:39.796Z,56.20
2018-11-04T10:10:10.738Z,58.20
2018-11-04T10:12:39.167Z,61.33
2018-11-04T10:15:07.577Z,51.97
2018-11-04T10:17:35.537Z,57.57
2018-11-04T10:20:04.469Z,56.07
2018-11-04T10:22:31.849Z,57.43
2018-11-04T10:24:59.638Z,61.20
2018-11-04T10:27:28.886Z,60.13
2018-11-04T10:29:56.944Z,59.30
2018-11-04T10:32:26.487Z,60.77
2018-11-04T10:34:54.980Z,61.57
2018-11-04T10:37:22.941Z,64.97
2018-11-04T10:39:53.378Z,56.93
2018-11-04T10:42:29.424Z,57.33
2018-11-04T10:45:01.941Z,57.90
2018-11-04T10:47:31.140Z,50.93
2018-11-04T10:49:59.035Z,52.23
2018-11-04T10:52:33.977Z,57.00
2018-11-04T10:55:01.554Z,50.43
2018-11-04T10:57:29.809Z,57.90
2018-11-04T10:59:57.990Z,55.63
2018-11-04T11:02:26.712Z,55.27
2018-11-04T11:04:57.172Z,50.00
2018-11-04T11:07:25.700Z,49.30
2018-11-04T11:13:08.439Z,52.03
2018-11-04T11:21:22.835Z,58.33
2018-11-04T11:27:01.482Z,53.50
2018-11-04T11:29:30.844Z,50.80
2018-11-04T11:31:59.719Z,54.50
2018-11-04T11:34:28.618Z,53.07
2018-11-04T11:39:33.183Z,54.73
2018-11-04T11:42:01.764Z,53.20
2018-11-04T11:44:29.575Z,61.13
2018-11-04T11:47:01.999Z,53.10
2018-11-04T11:49:30.443Z,54.60
2018-11-04T11:51:59.418Z,52.37
2018-11-04T11:54:28.085Z,49.63
2018-11-04T11:56:56.488Z,50.07
2018-11-04T11:59:25.368Z,52.83
2018-11-04T12:01:53.951Z,53.07
2018-11-04T12:04:23.149Z,53.53
2018-11-04T12:06:54.134Z,54.53
2018-11-04T12:09:24.278Z,49.43
2018-11-04T12:11:52.956Z,57.53
2018-11-04T12:14:21.343Z,55.70
2018-11-04T12:16:51.910Z,48.30
2018-11-04T12:19:21.456Z,51.98
2018-11-04T12:21:50.230Z,53.10
2018-11-04T12:24:18.770Z,49.20
2018-11-04T12:26:48.019Z,50.10
2018-11-04T12:29:18.061Z,53.43
2018-11-04T12:31:46.618Z,58.13
2018-11-04T12:34:16.978Z,47.33
2018-11-04T12:36:59.787Z,50.07
2018-11-04T12:39:28.476Z,49.57
2018-11-04T12:42:03.006Z,55.83
2018-11-04T12:44:31.454Z,50.63
2018-11-04T12:47:27.780Z,49.80
2018-11-04T12:49:59.336Z,57.33
2018-11-04T12:52:30.080Z,54.70
2018-11-04T12:55:00.180Z,51.17
2018-11-04T12:57:43.782Z,51.33
2018-11-04T13:00:15.774Z,54.43
2018-11-04T13:02:47.281Z,52.90
2018-11-04T13:05:16.209Z,53.80
2018-11-04T13:07:45.029Z,52.63
2018-11-04T13:10:14.133Z,50.40
2018-11-04T13:12:45.512Z,48.83
2018-11-04T13:15:15.652Z,52.20
2018-11-04T13:17:44.886Z,47.10
2018-11-04T13:20:13.237Z,50.60
2018-11-04T13:22:42.670Z,45.13
2018-11-04T13:25:10.751Z,47.63
2018-11-04T13:27:41.003Z,46.43
2018-11-04T13:30:11.151Z,46.73
2018-11-04T13:32:39.287Z,48.53
2018-11-04T13:35:07.763Z,48.13
2018-11-04T13:37:35.661Z,51.70
2018-11-04T13:40:05.334Z,48.90
2018-11-04T13:42:40.796Z,50.00
2018-11-04T13:45:09.648Z,46.13
2018-11-04T13:47:38.794Z,48.37
2018-11-04T13:50:09.027Z,47.73
2018-11-04T13:52:37.569Z,45.33
2018-11-04T13:55:09.874Z,43.73
2018-11-04T13:57:38.747Z,39.30
2018-11-04T14:00:10.043Z,45.97
2018-11-04T14:02:39.480Z,44.37
2018-11-04T14:05:08.884Z,46.27
2018-11-04T14:07:37.226Z,44.63
2018-11-04T14:10:15.124Z,41.67
2018-11-04T14:12:50.494Z,41.43
2018-11-04T14:15:20.445Z,41.27
2018-11-04T14:17:49.554Z,41.30
2018-11-04T14:20:19.083Z,35.73
2018-11-04T14:22:48.863Z,40.57
2018-11-04T14:25:18.817Z,39.03
2018-11-04T14:27:49.477Z,36.77
2018-11-04T14:30:21.839Z,38.90
2018-11-04T14:32:50.723Z,37.43
2018-11-04T14:35:21.885Z,36.73
2018-11-04T14:37:50.260Z,37.50
2018-11-04T14:40:30.106Z,35.80
2018-11-04T14:43:00.091Z,41.43
2018-11-04T14:45:29.932Z,37.40
2018-11-04T14:47:58.850Z,38.60
2018-11-04T14:50:27.512Z,36.40
2018-11-04T14:55:52.893Z,40.37
2018-11-04T14:58:22.193Z,38.27
2018-11-04T15:00:50.480Z,40.73
2018-11-04T15:03:19.871Z,37.90
2018-11-04T15:05:50.252Z,38.67
2018-11-04T15:08:23.317Z,38.47
2018-11-04T15:10:53.207Z,35.57
2018-11-04T15:13:22.929Z,39.57
2018-11-04T15:15:52.064Z,35.80
2018-11-04T15:18:26.638Z,41.30
2018-11-04T15:20:55.139Z,37.63
2018-11-04T15:23:27.350Z,40.20
2018-11-04T15:25:57.670Z,39.17
2018-11-04T15:28:26.926Z,41.40
2018-11-04T15:30:57.267Z,39.70
2018-11-04T15:33:37.249Z,42.10
2018-11-04T15:36:11.128Z,42.40
2018-11-04T15:38:41.874Z,40.23
2018-11-04T15:41:18.260Z,43.23
2018-11-04T15:43:57.891Z,41.17
2018-11-04T15:46:30.761Z,42.50
2018-11-04T15:49:00.755Z,43.65
2018-11-04T15:52:01.874Z,41.23
2018-11-04T15:54:30.776Z,45.10
2018-11-04T15:57:09.152Z,45.17
2018-11-04T16:02:31.121Z,45.10
2018-11-04T16:07:53.803Z,44.03
2018-11-04T16:10:21.993Z,45.47
2018-11-04T16:12:50.353Z,45.50
2018-11-04T16:15:20.549Z,46.13
2018-11-04T16:17:54.747Z,45.80
2018-11-04T16:20:24.155Z,46.17
2018-11-04T16:22:52.742Z,46.20
2018-11-04T16:25:20.913Z,42.27
2018-11-04T16:27:49.679Z,45.17
2018-11-04T16:30:17.606Z,50.87
2018-11-04T16:32:45.622Z,47.47
2018-11-04T16:35:14.337Z,48.33
2018-11-04T16:37:43.982Z,44.37
2018-11-04T16:40:12.897Z,47.30
2018-11-04T16:42:41.255Z,44.37
2018-11-04T16:45:14.019Z,46.13
2018-11-04T16:50:34.192Z,48.90
2018-11-04T16:53:02.034Z,49.40
2018-11-04T16:55:30.189Z,50.93
2018-11-04T16:57:58.168Z,45.77
2018-11-04T17:00:26.694Z,53.97
2018-11-04T17:02:54.746Z,51.10
2018-11-04T17:05:23.808Z,51.30
2018-11-04T17:07:51.515Z,51.33
2018-11-04T17:10:19.604Z,48.63
2018-11-04T17:12:49.711Z,50.93
2018-11-04T17:15:17.506Z,50.47
2018-11-04T17:17:45.453Z,49.23
2018-11-04T17:23:26.814Z,48.77
2018-11-04T17:25:54.918Z,49.27
2018-11-04T17:28:22.841Z,50.30
2018-11-04T17:30:52.202Z,48.00
2018-11-04T17:33:25.056Z,52.63
2018-11-04T17:35:54.659Z,49.60
2018-11-04T17:38:23.716Z,55.90
2018-11-04T17:40:52.466Z,50.07
2018-11-04T17:43:21.935Z,51.47
2018-11-04T17:45:50.702Z,54.83
2018-11-04T17:48:19.172Z,51.67
2018-11-04T17:50:47.376Z,53.30
2018-11-04T17:53:18.252Z,53.00
2018-11-04T17:55:46.853Z,53.08
2018-11-04T17:58:15.370Z,55.37
2018-11-04T18:00:43.898Z,55.53
2018-11-04T18:03:12.453Z,54.00
2018-11-04T18:06:07.176Z,56.97
2018-11-04T18:08:47.785Z,56.97
2018-11-04T18:11:15.842Z,57.23
2018-11-04T18:13:44.698Z,58.77
2018-11-04T18:16:14.518Z,60.87
2018-11-04T18:18:42.948Z,59.30
2018-11-04T18:21:11.587Z,60.90
2018-11-04T18:23:40.033Z,58.03
2018-11-04T18:26:08.394Z,59.50
2018-11-04T18:28:36.456Z,56.20
2018-11-04T18:31:04.840Z,60.37
2018-11-04T18:33:32.944Z,60.53
2018-11-04T18:36:01.140Z,64.43
2018-11-04T18:38:29.772Z,62.13
2018-11-04T18:40:58.216Z,61.30
2018-11-04T18:43:29.270Z,67.43
2018-11-04T18:45:57.118Z,58.63
2018-11-04T19:48:14.931Z,75.03
2018-11-04T19:50:42.580Z,82.40
2018-11-04T19:53:10.565Z,77.83
2018-11-04T19:55:38.535Z,82.23
2018-11-04T19:58:06.613Z,79.47
2018-11-04T20:00:34.300Z,79.73
2018-11-04T20:03:02.099Z,90.07
2018-11-04T20:05:30.304Z,87.40
2018-11-04T20:07:58.178Z,86.50
2018-11-04T20:10:26.286Z,90.43
2018-11-04T20:12:59.869Z,89.47
2018-11-04T20:15:27.927Z,86.60
2018-11-04T20:17:55.749Z,94.43
2018-11-04T20:20:25.407Z,84.23
2018-11-04T20:22:53.694Z,99.40
2018-11-04T20:25:27.383Z,93.87
2018-11-04T20:27:55.264Z,99.53
2018-11-04T20:30:23.416Z,97.87
2018-11-04T20:32:57.098Z,105.17
2018-11-04T20:35:25.278Z,96.13
2018-11-04T20:37:53.244Z,93.17
2018-11-04T20:40:26.806Z,94.90
2018-11-04T20:42:54.745Z,96.87
2018-11-04T20:45:23.034Z,95.43
2018-11-04T20:48:10.601Z,108.50
2018-11-04T21:08:11.619Z,109.70
2018-11-04T21:10:39.681Z,106.97
2018-11-04T21:13:07.638Z,104.43
2018-11-04T21:15:35.561Z,105.40
2018-11-04T21:38:14.271Z,122.47
2018-11-04T21:40:42.685Z,105.03
2018-11-04T21:43:10.896Z,96.63
2018-11-04T21:45:38.993Z,107.30
2018-11-04T21:48:06.932Z,116.93
2018-11-04T21:50:40.963Z,114.77
2018-11-04T22:10:25.987Z,107.80
2018-11-04T22:12:54.113Z,141.77
2018-11-04T22:15:21.969Z,117.77
2018-11-04T22:17:49.899Z,111.17
2018-11-04T22:20:17.917Z,111.70
2018-11-04T22:22:45.875Z,112.83
2018-11-04T22:25:15.889Z,111.73
2018-11-04T22:27:43.758Z,120.23
2018-11-04T22:30:12.243Z,110.90
2018-11-04T22:32:40.145Z,112.30
2018-11-04T22:35:09.410Z,120.00
2018-11-04T22:37:37.785Z,124.80
2018-11-04T22:40:06.606Z,118.00
2018-11-04T22:42:34.705Z,120.47
2018-11-04T22:45:02.508Z,113.33
2018-11-04T22:47:30.350Z,120.40
2018-11-04T22:49:58.342Z,110.07
2018-11-04T22:52:26.150Z,119.57
2018-11-04T22:54:53.937Z,118.80
2018-11-04T22:57:21.846Z,102.40
2018-11-04T22:59:49.892Z,119.57
2018-11-04T23:02:17.867Z,111.73
2018-11-04T23:04:51.340Z,106.97
2018-11-04T23:07:19.446Z,115.07
2018-11-04T23:09:47.190Z,111.10
2018-11-04T23:12:14.933Z,112.47
2018-11-04T23:14:42.828Z,113.73
2018-11-04T23:17:10.881Z,115.60
2018-11-04T23:19:38.717Z,108.73
2018-11-04T23:22:06.747Z,112.27
2018-11-04T23:24:34.603Z,110.20
2018-11-04T23:27:02.616Z,109.20
2018-11-04T23:29:30.344Z,105.17
2018-11-04T23:31:58.141Z,110.53
2018-11-04T23:34:25.969Z,114.40
2018-11-04T23:36:53.760Z,111.43
2018-11-04T23:39:21.552Z,114.20
2018-11-04T23:41:49.399Z,123.60
2018-11-04T23:44:17.401Z,95.33
2018-11-04T23:46:45.252Z,107.63
2018-11-04T23:49:13.222Z,107.23
2018-11-04T23:51:41.188Z,109.10
2018-11-04T23:54:09.129Z,108.33
2018-11-04T23:56:36.955Z,112.03
2018-11-04T23:59:05.100Z,115.20
